sensor_id;sensor_type;location;lat;lon;timestamp;pressure;altitude;pressure_sealevel;temperature;humidity
33859;BME280;20156;47.486;12.074;2023-03-25T00:01:13;92320.00;;;8.24;100.00
33859;BME280;20156;47.486;12.074;2023-03-25T00:03:41;92327.25;;;8.11;100.00
33859;BME280;20156;47.486;12.074;2023-03-25T00:06:07;92323.66;;;8.07;100.00
33859;BME280;20156;47.486;12.074;2023-03-25T00:08:33;92307.56;;;8.05;100.00
33859;BME280;20156;47.486;12.074;2023-03-25T00:11:00;92285.34;;;8.09;100.00
33859;BME280;20156;47.486;12.074;2023-03-25T00:13:28;92275.50;;;8.06;100.00
33859;BME280;20156;47.486;12.074;2023-03-25T00:15:56;92275.78;;;7.90;100.00
33859;BME280;20156;47.486;12.074;2023-03-25T00:18:28;92266.16;;;8.00;100.00
33859;BME280;20156;47.486;12.074;2023-03-25T00:20:54;92266.94;;;8.06;100.00
33859;BME280;20156;47.486;12.074;2023-03-25T00:23:20;92294.63;;;8.05;100.00
33859;BME280;20156;47.486;12.074;2023-03-25T00:25:46;92294.91;;;8.14;100.00
33859;BME280;20156;47.486;12.074;2023-03-25T00:28:13;92307.84;;;8.09;100.00
33859;BME280;20156;47.486;12.074;2023-03-25T00:30:39;92330.09;;;8.00;100.00
33859;BME280;20156;47.486;12.074;2023-03-25T00:33:05;92351.06;;;7.88;100.00
33859;BME280;20156;47.486;12.074;2023-03-25T00:35:31;92359.06;;;7.81;100.00
33859;BME280;20156;47.486;12.074;2023-03-25T00:37:57;92364.78;;;7.78;100.00
33859;BME280;20156;47.486;12.074;2023-03-25T00:40:29;92310.44;;;7.78;100.00
33859;BME280;20156;47.486;12.074;2023-03-25T00:42:59;92314.84;;;7.73;100.00
33859;BME280;20156;47.486;12.074;2023-03-25T00:45:25;92325.41;;;7.66;100.00
33859;BME280;20156;47.486;12.074;2023-03-25T00:47:51;92305.50;;;7.72;100.00
33859;BME280;20156;47.486;12.074;2023-03-25T00:50:16;92307.84;;;7.68;100.00
33859;BME280;20156;47.486;12.074;2023-03-25T00:52:42;92337.28;;;7.42;100.00
33859;BME280;20156;47.486;12.074;2023-03-25T00:55:08;92339.31;;;7.30;100.00
33859;BME280;20156;47.486;12.074;2023-03-25T00:57:33;92308.59;;;7.43;100.00
33859;BME280;20156;47.486;12.074;2023-03-25T00:59:59;92295.91;;;7.52;100.00
33859;BME280;20156;47.486;12.074;2023-03-25T01:02:24;92315.31;;;7.49;100.00
33859;BME280;20156;47.486;12.074;2023-03-25T01:04:50;92330.06;;;7.44;100.00
33859;BME280;20156;47.486;12.074;2023-03-25T01:07:16;92338.59;;;7.39;100.00
33859;BME280;20156;47.486;12.074;2023-03-25T01:09:42;92362.59;;;7.30;100.00
33859;BME280;20156;47.486;12.074;2023-03-25T01:12:10;92409.81;;;7.10;100.00
33859;BME280;20156;47.486;12.074;2023-03-25T01:14:36;92448.00;;;6.98;100.00
33859;BME280;20156;47.486;12.074;2023-03-25T01:17:01;92482.84;;;6.90;100.00
33859;BME280;20156;47.486;12.074;2023-03-25T01:19:27;92471.50;;;6.96;100.00
33859;BME280;20156;47.486;12.074;2023-03-25T01:21:53;92484.09;;;6.87;100.00
33859;BME280;20156;47.486;12.074;2023-03-25T01:24:18;92509.03;;;6.72;100.00
33859;BME280;20156;47.486;12.074;2023-03-25T01:26:44;92502.63;;;6.74;100.00
33859;BME280;20156;47.486;12.074;2023-03-25T01:29:16;92510.06;;;6.71;100.00
33859;BME280;20156;47.486;12.074;2023-03-25T01:31:43;92494.63;;;6.76;100.00
33859;BME280;20156;47.486;12.074;2023-03-25T01:34:09;92479.91;;;6.76;100.00
33859;BME280;20156;47.486;12.074;2023-03-25T01:36:35;92490.19;;;6.71;100.00
33859;BME280;20156;47.486;12.074;2023-03-25T01:39:05;92493.47;;;6.61;100.00
33859;BME280;20156;47.486;12.074;2023-03-25T01:41:33;92481.59;;;6.60;100.00
33859;BME280;20156;47.486;12.074;2023-03-25T01:44:09;92492.31;;;6.47;100.00
33859;BME280;20156;47.486;12.074;2023-03-25T01:46:54;92532.59;;;6.21;100.00
33859;BME280;20156;47.486;12.074;2023-03-25T01:49:27;92507.16;;;6.30;100.00
33859;BME280;20156;47.486;12.074;2023-03-25T01:52:08;92500.44;;;6.29;100.00
33859;BME280;20156;47.486;12.074;2023-03-25T01:54:36;92467.16;;;6.32;100.00
33859;BME280;20156;47.486;12.074;2023-03-25T01:57:03;92424.69;;;6.50;100.00
33859;BME280;20156;47.486;12.074;2023-03-25T01:59:30;92448.25;;;6.22;100.00
33859;BME280;20156;47.486;12.074;2023-03-25T02:02:00;92427.91;;;6.30;100.00
33859;BME280;20156;47.486;12.074;2023-03-25T02:04:42;92412.69;;;6.34;100.00
33859;BME280;20156;47.486;12.074;2023-03-25T02:07:10;92371.25;;;6.51;100.00
33859;BME280;20156;47.486;12.074;2023-03-25T02:09:37;92362.44;;;6.42;100.00
33859;BME280;20156;47.486;12.074;2023-03-25T02:12:03;92335.16;;;6.56;100.00
33859;BME280;20156;47.486;12.074;2023-03-25T02:14:31;92344.34;;;6.42;100.00
33859;BME280;20156;47.486;12.074;2023-03-25T02:34:07;92265.44;;;6.56;100.00
33859;BME280;20156;47.486;12.074;2023-03-25T02:39:23;92300.97;;;6.39;100.00
33859;BME280;20156;47.486;12.074;2023-03-25T02:42:03;92301.75;;;6.39;100.00
33859;BME280;20156;47.486;12.074;2023-03-25T02:44:36;92282.16;;;6.48;100.00
33859;BME280;20156;47.486;12.074;2023-03-25T02:47:07;92240.66;;;6.65;100.00
33859;BME280;20156;47.486;12.074;2023-03-25T02:49:40;92240.66;;;6.65;100.00
33859;BME280;20156;47.486;12.074;2023-03-25T02:52:13;92225.72;;;6.72;100.00
33859;BME280;20156;47.486;12.074;2023-03-25T02:54:41;92247.88;;;6.63;100.00
33859;BME280;20156;47.486;12.074;2023-03-25T02:57:10;92259.25;;;6.62;100.00
33859;BME280;20156;47.486;12.074;2023-03-25T02:59:38;92265.72;;;6.64;100.00
33859;BME280;20156;47.486;12.074;2023-03-25T03:02:09;92264.69;;;6.71;100.00
33859;BME280;20156;47.486;12.074;2023-03-25T03:04:54;92271.13;;;6.68;100.00
33859;BME280;20156;47.486;12.074;2023-03-25T03:07:28;92259.31;;;6.77;100.00
33859;BME280;20156;47.486;12.074;2023-03-25T03:10:19;92291.25;;;6.56;100.00
33859;BME280;20156;47.486;12.074;2023-03-25T03:27:08;92268.81;;;6.67;100.00
33859;BME280;20156;47.486;12.074;2023-03-25T03:29:48;92276.81;;;6.70;100.00
33859;BME280;20156;47.486;12.074;2023-03-25T03:32:29;92310.09;;;6.56;100.00
33859;BME280;20156;47.486;12.074;2023-03-25T03:35:12;92325.56;;;6.51;100.00
33859;BME280;20156;47.486;12.074;2023-03-25T03:37:42;92339.47;;;6.45;100.00
33859;BME280;20156;47.486;12.074;2023-03-25T03:40:14;92324.81;;;6.56;100.00
33859;BME280;20156;47.486;12.074;2023-03-25T03:42:45;92335.34;;;6.49;100.00
33859;BME280;20156;47.486;12.074;2023-03-25T03:45:16;92338.44;;;6.46;100.00
33859;BME280;20156;47.486;12.074;2023-03-25T03:47:47;92332.00;;;6.49;100.00
33859;BME280;20156;47.486;12.074;2023-03-25T03:50:18;92335.59;;;6.48;100.00
33859;BME280;20156;47.486;12.074;2023-03-25T03:52:52;92342.03;;;6.40;100.00
33859;BME280;20156;47.486;12.074;2023-03-25T03:55:31;92335.25;;;6.34;100.00
33859;BME280;20156;47.486;12.074;2023-03-25T03:58:07;92326.19;;;6.26;100.00
33859;BME280;20156;47.486;12.074;2023-03-25T04:00:42;92296.53;;;6.34;100.00
33859;BME280;20156;47.486;12.074;2023-03-25T04:03:19;92313.03;;;6.28;100.00
33859;BME280;20156;47.486;12.074;2023-03-25T04:05:53;92324.06;;;6.18;100.00
33859;BME280;20156;47.486;12.074;2023-03-25T04:13:18;92344.69;;;5.86;100.00
33859;BME280;20156;47.486;12.074;2023-03-25T04:15:44;92353.19;;;5.87;100.00
33859;BME280;20156;47.486;12.074;2023-03-25T04:18:10;92349.44;;;5.94;100.00
33859;BME280;20156;47.486;12.074;2023-03-25T04:20:36;92368.69;;;5.87;100.00
33859;BME280;20156;47.486;12.074;2023-03-25T04:23:02;92361.56;;;5.94;100.00
33859;BME280;20156;47.486;12.074;2023-03-25T04:25:30;92346.13;;;6.04;100.00
33859;BME280;20156;47.486;12.074;2023-03-25T04:27:57;92344.59;;;6.03;100.00
33859;BME280;20156;47.486;12.074;2023-03-25T04:30:24;92330.44;;;6.06;100.00
33859;BME280;20156;47.486;12.074;2023-03-25T04:32:50;92303.47;;;6.23;100.00
33859;BME280;20156;47.486;12.074;2023-03-25T04:35:17;92208.75;;;6.29;100.00
33859;BME280;20156;47.486;12.074;2023-03-25T04:37:46;92196.13;;;6.38;100.00
33859;BME280;20156;47.486;12.074;2023-03-25T04:40:14;92179.41;;;6.50;100.00
33859;BME280;20156;47.486;12.074;2023-03-25T04:42:44;92190.50;;;6.51;100.00
33859;BME280;20156;47.486;12.074;2023-03-25T04:45:11;92193.59;;;6.53;100.00
33859;BME280;20156;47.486;12.074;2023-03-25T04:47:39;92175.06;;;6.61;100.00
33859;BME280;20156;47.486;12.074;2023-03-25T04:50:21;92182.03;;;6.60;100.00
33859;BME280;20156;47.486;12.074;2023-03-25T04:52:48;92195.97;;;6.64;100.00
33859;BME280;20156;47.486;12.074;2023-03-25T04:55:13;92193.41;;;6.64;100.00
33859;BME280;20156;47.486;12.074;2023-03-25T04:57:43;92182.31;;;6.74;100.00
33859;BME280;20156;47.486;12.074;2023-03-25T05:00:10;92205.06;;;6.72;100.00
33859;BME280;20156;47.486;12.074;2023-03-25T05:02:36;92221.28;;;6.62;100.00
33859;BME280;20156;47.486;12.074;2023-03-25T05:05:02;92246.53;;;6.45;100.00
33859;BME280;20156;47.486;12.074;2023-03-25T05:07:29;92248.84;;;6.42;100.00
33859;BME280;20156;47.486;12.074;2023-03-25T05:09:54;92242.06;;;6.36;100.00
33859;BME280;20156;47.486;12.074;2023-03-25T05:12:21;92213.47;;;6.42;100.00
33859;BME280;20156;47.486;12.074;2023-03-25T05:14:47;92200.03;;;6.40;100.00
33859;BME280;20156;47.486;12.074;2023-03-25T05:17:12;92162.38;;;6.49;100.00
33859;BME280;20156;47.486;12.074;2023-03-25T05:19:38;92114.88;;;6.66;100.00
33859;BME280;20156;47.486;12.074;2023-03-25T05:22:08;92090.34;;;6.58;100.00
33859;BME280;20156;47.486;12.074;2023-03-25T05:24:33;92088.00;;;6.51;100.00
33859;BME280;20156;47.486;12.074;2023-03-25T05:26:59;92086.19;;;6.52;100.00
33859;BME280;20156;47.486;12.074;2023-03-25T05:29:26;92077.97;;;6.60;100.00
33859;BME280;20156;47.486;12.074;2023-03-25T05:31:52;92082.59;;;6.63;100.00
33859;BME280;20156;47.486;12.074;2023-03-25T05:34:18;92077.94;;;6.70;100.00
33859;BME280;20156;47.486;12.074;2023-03-25T05:36:44;92104.56;;;6.60;100.00
33859;BME280;20156;47.486;12.074;2023-03-25T05:39:11;92113.34;;;6.59;100.00
33859;BME280;20156;47.486;12.074;2023-03-25T05:41:37;92122.91;;;6.59;100.00
33859;BME280;20156;47.486;12.074;2023-03-25T05:44:07;92144.28;;;6.44;100.00
33859;BME280;20156;47.486;12.074;2023-03-25T05:46:33;92137.63;;;6.63;100.00
33859;BME280;20156;47.486;12.074;2023-03-25T05:48:59;92137.91;;;6.77;100.00
33859;BME280;20156;47.486;12.074;2023-03-25T05:51:29;92148.75;;;6.74;100.00
33859;BME280;20156;47.486;12.074;2023-03-25T05:53:58;92160.38;;;6.77;100.00
33859;BME280;20156;47.486;12.074;2023-03-25T05:56:23;92182.28;;;6.64;100.00
33859;BME280;20156;47.486;12.074;2023-03-25T05:58:51;92169.63;;;6.68;100.00
33859;BME280;20156;47.486;12.074;2023-03-25T06:01:19;92160.13;;;6.78;100.00
33859;BME280;20156;47.486;12.074;2023-03-25T06:03:45;92146.94;;;6.80;100.00
33859;BME280;20156;47.486;12.074;2023-03-25T06:06:11;92119.81;;;6.87;100.00
33859;BME280;20156;47.486;12.074;2023-03-25T06:08:49;92106.66;;;6.99;100.00
33859;BME280;20156;47.486;12.074;2023-03-25T06:11:16;92115.44;;;6.98;100.00
33859;BME280;20156;47.486;12.074;2023-03-25T06:13:43;92142.06;;;6.93;100.00
33859;BME280;20156;47.486;12.074;2023-03-25T06:16:17;92170.47;;;6.93;100.00
33859;BME280;20156;47.486;12.074;2023-03-25T06:18:45;92223.41;;;6.86;100.00
33859;BME280;20156;47.486;12.074;2023-03-25T06:21:16;92252.34;;;6.83;100.00
33859;BME280;20156;47.486;12.074;2023-03-25T06:23:41;92249.53;;;6.94;100.00
33859;BME280;20156;47.486;12.074;2023-03-25T06:26:07;92262.72;;;6.98;100.00
33859;BME280;20156;47.486;12.074;2023-03-25T06:28:33;92273.56;;;6.95;100.00
33859;BME280;20156;47.486;12.074;2023-03-25T06:30:58;92276.16;;;7.00;100.00
33859;BME280;20156;47.486;12.074;2023-03-25T06:33:24;92272.03;;;6.99;100.00
33859;BME280;20156;47.486;12.074;2023-03-25T06:35:50;92303.53;;;6.91;100.00
33859;BME280;20156;47.486;12.074;2023-03-25T06:38:19;92302.81;;;7.06;100.00
33859;BME280;20156;47.486;12.074;2023-03-25T06:40:47;92322.41;;;6.97;100.00
33859;BME280;20156;47.486;12.074;2023-03-25T06:43:13;92327.63;;;7.07;100.00
33859;BME280;20156;47.486;12.074;2023-03-25T06:45:38;92338.25;;;7.15;100.00
33859;BME280;20156;47.486;12.074;2023-03-25T06:48:04;92346.00;;;7.20;100.00
33859;BME280;20156;47.486;12.074;2023-03-25T06:50:30;92350.44;;;7.25;100.00
33859;BME280;20156;47.486;12.074;2023-03-25T06:52:56;92342.22;;;7.48;100.00
33859;BME280;20156;47.486;12.074;2023-03-25T06:55:21;92343.28;;;7.68;100.00
33859;BME280;20156;47.486;12.074;2023-03-25T06:57:47;92369.16;;;7.63;100.00
33859;BME280;20156;47.486;12.074;2023-03-25T07:00:12;92401.94;;;7.52;100.00
33859;BME280;20156;47.486;12.074;2023-03-25T07:02:38;92377.72;;;7.73;100.00
33859;BME280;20156;47.486;12.074;2023-03-25T07:05:05;92369.44;;;7.97;100.00
33859;BME280;20156;47.486;12.074;2023-03-25T07:07:31;92394.56;;;8.01;100.00
33859;BME280;20156;47.486;12.074;2023-03-25T07:09:56;92413.72;;;8.15;100.00
33859;BME280;20156;47.486;12.074;2023-03-25T07:12:22;92415.59;;;8.40;100.00
33859;BME280;20156;47.486;12.074;2023-03-25T07:14:52;92451.06;;;8.50;100.00
33859;BME280;20156;47.486;12.074;2023-03-25T07:17:17;92495.63;;;8.52;100.00
33859;BME280;20156;47.486;12.074;2023-03-25T07:19:43;92525.19;;;8.61;100.00
33859;BME280;20156;47.486;12.074;2023-03-25T07:22:08;92560.44;;;8.83;100.00
33859;BME280;20156;47.486;12.074;2023-03-25T07:24:34;92588.97;;;9.13;100.00
33859;BME280;20156;47.486;12.074;2023-03-25T07:26:59;92660.25;;;8.95;100.00
33859;BME280;20156;47.486;12.074;2023-03-25T07:29:25;92753.41;;;9.12;100.00
33859;BME280;20156;47.486;12.074;2023-03-25T07:31:50;92879.78;;;9.37;100.00
33859;BME280;20156;47.486;12.074;2023-03-25T07:34:15;93050.44;;;9.25;100.00
33859;BME280;20156;47.486;12.074;2023-03-25T07:36:41;93252.44;;;9.16;100.00
33859;BME280;20156;47.486;12.074;2023-03-25T07:39:06;93375.03;;;9.28;100.00
33859;BME280;20156;47.486;12.074;2023-03-25T07:41:32;93433.34;;;9.43;100.00
33859;BME280;20156;47.486;12.074;2023-03-25T07:43:57;93474.41;;;9.29;100.00
33859;BME280;20156;47.486;12.074;2023-03-25T07:46:23;93477.94;;;9.23;100.00
33859;BME280;20156;47.486;12.074;2023-03-25T07:48:48;93475.44;;;9.28;100.00
33859;BME280;20156;47.486;12.074;2023-03-25T07:51:14;93475.25;;;9.34;100.00
33859;BME280;20156;47.486;12.074;2023-03-25T07:53:39;93561.34;;;9.31;100.00
33859;BME280;20156;47.486;12.074;2023-03-25T07:56:09;93571.31;;;9.40;100.00
33859;BME280;20156;47.486;12.074;2023-03-25T07:58:35;93624.84;;;9.41;100.00
33859;BME280;20156;47.486;12.074;2023-03-25T08:01:01;93621.34;;;9.85;100.00
33859;BME280;20156;47.486;12.074;2023-03-25T08:03:26;93639.41;;;10.14;100.00
33859;BME280;20156;47.486;12.074;2023-03-25T08:05:52;93663.41;;;10.04;100.00
33859;BME280;20156;47.486;12.074;2023-03-25T08:08:18;93678.72;;;9.84;100.00
33859;BME280;20156;47.486;12.074;2023-03-25T08:10:44;93716.41;;;9.70;100.00
33859;BME280;20156;47.486;12.074;2023-03-25T08:13:11;93801.91;;;9.59;100.00
33859;BME280;20156;47.486;12.074;2023-03-25T08:15:38;93809.31;;;9.68;100.00
33859;BME280;20156;47.486;12.074;2023-03-25T08:18:03;93772.53;;;9.42;100.00
33859;BME280;20156;47.486;12.074;2023-03-25T08:20:31;93837.16;;;9.44;100.00
33859;BME280;20156;47.486;12.074;2023-03-25T08:22:56;93864.59;;;9.40;100.00
33859;BME280;20156;47.486;12.074;2023-03-25T08:25:22;93858.25;;;9.59;100.00
33859;BME280;20156;47.486;12.074;2023-03-25T08:27:48;93847.63;;;10.06;100.00
33859;BME280;20156;47.486;12.074;2023-03-25T08:30:14;93958.53;;;10.17;100.00
33859;BME280;20156;47.486;12.074;2023-03-25T08:32:39;94041.94;;;10.55;100.00
33859;BME280;20156;47.486;12.074;2023-03-25T08:35:05;94172.72;;;10.79;100.00
33859;BME280;20156;47.486;12.074;2023-03-25T08:37:31;94247.94;;;11.21;100.00
33859;BME280;20156;47.486;12.074;2023-03-25T08:40:04;94323.09;;;11.69;100.00
33859;BME280;20156;47.486;12.074;2023-03-25T08:42:37;94411.31;;;11.89;100.00
33859;BME280;20156;47.486;12.074;2023-03-25T08:45:03;94514.88;;;12.05;100.00
33859;BME280;20156;47.486;12.074;2023-03-25T08:47:30;94642.41;;;12.19;100.00
33859;BME280;20156;47.486;12.074;2023-03-25T08:49:55;94736.47;;;12.05;100.00
33859;BME280;20156;47.486;12.074;2023-03-25T08:52:20;94811.72;;;11.54;100.00
33859;BME280;20156;47.486;12.074;2023-03-25T08:54:46;94847.75;;;12.23;100.00
33859;BME280;20156;47.486;12.074;2023-03-25T08:57:11;94823.28;;;11.94;100.00
33859;BME280;20156;47.486;12.074;2023-03-25T08:59:37;94852.38;;;12.21;100.00
33859;BME280;20156;47.486;12.074;2023-03-25T09:02:03;94866.81;;;12.89;100.00
33859;BME280;20156;47.486;12.074;2023-03-25T09:04:28;94895.84;;;12.69;100.00
33859;BME280;20156;47.486;12.074;2023-03-25T09:06:55;94885.06;;;12.65;100.00
33859;BME280;20156;47.486;12.074;2023-03-25T09:09:21;94894.22;;;12.56;100.00
33859;BME280;20156;47.486;12.074;2023-03-25T09:11:46;94907.16;;;12.51;100.00
33859;BME280;20156;47.486;12.074;2023-03-25T09:14:12;94924.03;;;12.79;100.00
33859;BME280;20156;47.486;12.074;2023-03-25T09:16:37;94952.31;;;13.05;100.00
33859;BME280;20156;47.486;12.074;2023-03-25T09:19:02;94938.66;;;13.45;100.00
33859;BME280;20156;47.486;12.074;2023-03-25T09:21:28;94935.94;;;13.51;100.00
33859;BME280;20156;47.486;12.074;2023-03-25T09:23:53;94928.88;;;13.40;100.00
33859;BME280;20156;47.486;12.074;2023-03-25T09:26:19;94949.00;;;13.63;100.00
33859;BME280;20156;47.486;12.074;2023-03-25T09:28:45;94923.66;;;13.29;100.00
33859;BME280;20156;47.486;12.074;2023-03-25T09:31:12;94933.00;;;12.83;100.00
33859;BME280;20156;47.486;12.074;2023-03-25T09:33:37;94922.44;;;12.78;100.00
33859;BME280;20156;47.486;12.074;2023-03-25T09:36:03;94921.84;;;12.64;100.00
33859;BME280;20156;47.486;12.074;2023-03-25T09:38:29;94904.09;;;12.96;100.00
33859;BME280;20156;47.486;12.074;2023-03-25T09:40:54;94881.28;;;13.62;100.00
33859;BME280;20156;47.486;12.074;2023-03-25T09:46:02;94889.81;;;13.22;100.00
33859;BME280;20156;47.486;12.074;2023-03-25T09:48:38;94900.28;;;12.69;100.00
33859;BME280;20156;47.486;12.074;2023-03-25T09:51:05;94864.94;;;13.19;100.00
33859;BME280;20156;47.486;12.074;2023-03-25T09:56:26;94903.81;;;12.86;100.00
33859;BME280;20156;47.486;12.074;2023-03-25T09:59:16;94907.38;;;13.03;100.00
33859;BME280;20156;47.486;12.074;2023-03-25T10:02:05;94914.25;;;13.28;100.00
33859;BME280;20156;47.486;12.074;2023-03-25T10:07:57;94932.72;;;13.26;100.00
33859;BME280;20156;47.486;12.074;2023-03-25T10:18:25;94943.59;;;13.93;100.00
33859;BME280;20156;47.486;12.074;2023-03-25T10:21:47;94946.13;;;13.76;100.00
33859;BME280;20156;47.486;12.074;2023-03-25T10:24:25;94945.88;;;14.01;100.00
33859;BME280;20156;47.486;12.074;2023-03-25T10:29:41;94956.28;;;14.65;100.00
33859;BME280;20156;47.486;12.074;2023-03-25T10:32:10;94941.78;;;14.91;100.00
33859;BME280;20156;47.486;12.074;2023-03-25T10:35:04;94935.41;;;14.70;100.00
33859;BME280;20156;47.486;12.074;2023-03-25T10:37:33;94951.59;;;14.67;100.00
33859;BME280;20156;47.486;12.074;2023-03-25T10:42:50;94958.47;;;14.56;100.00
33859;BME280;20156;47.486;12.074;2023-03-25T10:45:21;94875.88;;;13.80;100.00
33859;BME280;20156;47.486;12.074;2023-03-25T10:47:48;94905.53;;;13.85;100.00
33859;BME280;20156;47.486;12.074;2023-03-25T10:50:16;94941.28;;;14.08;100.00
33859;BME280;20156;47.486;12.074;2023-03-25T10:52:43;94943.00;;;14.14;100.00
33859;BME280;20156;47.486;12.074;2023-03-25T10:55:35;94951.00;;;13.96;100.00
33859;BME280;20156;47.486;12.074;2023-03-25T10:58:01;94955.44;;;13.96;100.00
33859;BME280;20156;47.486;12.074;2023-03-25T11:00:28;94964.28;;;14.06;100.00
33859;BME280;20156;47.486;12.074;2023-03-25T11:02:54;94964.56;;;13.81;100.00
33859;BME280;20156;47.486;12.074;2023-03-25T11:05:23;94929.88;;;13.74;100.00
33859;BME280;20156;47.486;12.074;2023-03-25T11:07:57;94932.88;;;14.06;100.00
33859;BME280;20156;47.486;12.074;2023-03-25T11:10:29;94908.31;;;14.07;100.00
33859;BME280;20156;47.486;12.074;2023-03-25T11:12:56;94926.34;;;14.61;100.00
33859;BME280;20156;47.486;12.074;2023-03-25T11:15:33;94927.28;;;14.83;100.00
33859;BME280;20156;47.486;12.074;2023-03-25T11:18:25;94921.50;;;14.53;100.00
33859;BME280;20156;47.486;12.074;2023-03-25T11:20:58;94863.13;;;14.69;100.00
33859;BME280;20156;47.486;12.074;2023-03-25T11:23:33;94866.72;;;14.63;100.00
33859;BME280;20156;47.486;12.074;2023-03-25T11:26:12;94849.31;;;14.57;100.00
33859;BME280;20156;47.486;12.074;2023-03-25T11:28:43;94795.44;;;14.61;100.00
33859;BME280;20156;47.486;12.074;2023-03-25T11:31:21;94841.69;;;14.72;100.00
33859;BME280;20156;47.486;12.074;2023-03-25T11:41:48;94856.09;;;15.80;100.00
33859;BME280;20156;47.486;12.074;2023-03-25T11:44:32;94772.53;;;15.67;100.00
33859;BME280;20156;47.486;12.074;2023-03-25T11:47:01;94731.31;;;15.62;100.00
33859;BME280;20156;47.486;12.074;2023-03-25T11:49:28;94652.41;;;15.42;100.00
33859;BME280;20156;47.486;12.074;2023-03-25T11:52:02;94570.56;;;15.08;100.00
33859;BME280;20156;47.486;12.074;2023-03-25T11:54:29;94589.81;;;15.46;100.00
33859;BME280;20156;47.486;12.074;2023-03-25T11:56:56;94547.59;;;15.47;100.00
33859;BME280;20156;47.486;12.074;2023-03-25T12:01:49;94553.47;;;15.00;100.00
33859;BME280;20156;47.486;12.074;2023-03-25T12:04:22;94456.94;;;15.19;100.00
33859;BME280;20156;47.486;12.074;2023-03-25T12:07:00;94494.75;;;16.03;100.00
33859;BME280;20156;47.486;12.074;2023-03-25T12:09:28;94452.31;;;16.21;100.00
33859;BME280;20156;47.486;12.074;2023-03-25T12:12:39;94431.28;;;15.21;100.00
33859;BME280;20156;47.486;12.074;2023-03-25T12:14:54;94498.38;;;13.64;100.00
33859;BME280;20156;47.486;12.074;2023-03-25T12:17:32;94544.56;;;14.14;100.00
33859;BME280;20156;47.486;12.074;2023-03-25T12:22:49;94549.88;;;14.85;100.00
33859;BME280;20156;47.486;12.074;2023-03-25T12:25:24;94561.50;;;14.28;100.00
33859;BME280;20156;47.486;12.074;2023-03-25T12:36:38;94687.22;;;13.03;100.00
33859;BME280;20156;47.486;12.074;2023-03-25T12:39:21;94744.56;;;12.74;100.00
33859;BME280;20156;47.486;12.074;2023-03-25T12:47:52;94842.41;;;12.60;100.00
33859;BME280;20156;47.486;12.074;2023-03-25T12:50:39;94884.53;;;12.33;100.00
33859;BME280;20156;47.486;12.074;2023-03-25T13:06:59;94939.34;;;11.97;100.00
33859;BME280;20156;47.486;12.074;2023-03-25T13:09:33;94939.75;;;11.75;100.00
33859;BME280;20156;47.486;12.074;2023-03-25T13:12:02;94925.00;;;12.06;100.00
33859;BME280;20156;47.486;12.074;2023-03-25T13:14:54;94896.31;;;12.36;100.00
33859;BME280;20156;47.486;12.074;2023-03-25T13:17:29;94866.22;;;12.63;100.00
33859;BME280;20156;47.486;12.074;2023-03-25T13:19:59;94868.31;;;13.43;100.00
33859;BME280;20156;47.486;12.074;2023-03-25T13:22:37;94916.28;;;13.61;100.00
33859;BME280;20156;47.486;12.074;2023-03-25T13:25:06;94937.97;;;13.38;100.00
33859;BME280;20156;47.486;12.074;2023-03-25T13:27:40;94886.06;;;13.30;100.00
33859;BME280;20156;47.486;12.074;2023-03-25T13:30:15;94895.88;;;13.74;100.00
33859;BME280;20156;47.486;12.074;2023-03-25T13:32:45;94883.66;;;13.63;100.00
33859;BME280;20156;47.486;12.074;2023-03-25T13:35:27;94865.16;;;13.30;100.00
33859;BME280;20156;47.486;12.074;2023-03-25T13:38:00;94841.84;;;13.05;100.00
33859;BME280;20156;47.486;12.074;2023-03-25T13:40:52;94863.22;;;13.13;100.00
33859;BME280;20156;47.486;12.074;2023-03-25T13:45:57;94873.50;;;13.78;100.00
33859;BME280;20156;47.486;12.074;2023-03-25T13:48:46;94878.22;;;14.62;100.00
33859;BME280;20156;47.486;12.074;2023-03-25T13:51:13;94875.34;;;14.35;100.00
33859;BME280;20156;47.486;12.074;2023-03-25T13:53:41;94877.81;;;14.41;100.00
33859;BME280;20156;47.486;12.074;2023-03-25T13:56:16;94829.94;;;13.84;100.00
33859;BME280;20156;47.486;12.074;2023-03-25T13:59:32;94828.34;;;13.83;100.00
33859;BME280;20156;47.486;12.074;2023-03-25T14:07:55;94818.81;;;13.37;100.00
33859;BME280;20156;47.486;12.074;2023-03-25T14:13:09;94797.41;;;13.63;100.00
33859;BME280;20156;47.486;12.074;2023-03-25T14:15:43;94808.13;;;13.38;100.00
33859;BME280;20156;47.486;12.074;2023-03-25T14:18:18;94809.06;;;13.32;100.00
33859;BME280;20156;47.486;12.074;2023-03-25T14:20:44;94805.19;;;12.64;100.00
33859;BME280;20156;47.486;12.074;2023-03-25T14:23:18;94867.06;;;12.34;100.00
33859;BME280;20156;47.486;12.074;2023-03-25T14:25:51;94912.75;;;12.07;100.00
33859;BME280;20156;47.486;12.074;2023-03-25T14:28:20;94947.38;;;11.34;100.00
33859;BME280;20156;47.486;12.074;2023-03-25T14:31:23;94948.19;;;11.53;100.00
33859;BME280;20156;47.486;12.074;2023-03-25T14:44:27;94941.94;;;11.35;100.00
33859;BME280;20156;47.486;12.074;2023-03-25T14:47:24;94952.84;;;11.51;100.00
33859;BME280;20156;47.486;12.074;2023-03-25T14:52:46;94950.63;;;11.91;100.00
33859;BME280;20156;47.486;12.074;2023-03-25T14:55:20;94959.13;;;12.53;100.00
33859;BME280;20156;47.486;12.074;2023-03-25T14:58:39;94965.91;;;12.84;100.00
33859;BME280;20156;47.486;12.074;2023-03-25T15:00:44;94939.81;;;13.49;100.00
33859;BME280;20156;47.486;12.074;2023-03-25T15:03:16;94895.16;;;13.27;100.00
33859;BME280;20156;47.486;12.074;2023-03-25T15:05:44;94888.03;;;13.74;100.00
33859;BME280;20156;47.486;12.074;2023-03-25T15:08:25;94888.31;;;13.38;100.00